createdAt,value
2019-02-08T00:02:26.644Z,12.30
2019-02-08T00:04:59.094Z,10.33
2019-02-08T00:07:33.256Z,15.73
2019-02-08T00:10:07.340Z,18.20
2019-02-08T00:12:38.574Z,14.73
2019-02-08T00:15:13.056Z,15.33
2019-02-08T00:17:45.954Z,18.00
2019-02-08T00:20:17.300Z,17.77
2019-02-08T00:22:52.814Z,11.13
2019-02-08T00:25:27.317Z,11.43
2019-02-08T00:27:58.963Z,18.57
2019-02-08T00:30:33.911Z,15.40
2019-02-08T00:33:06.760Z,26.63
2019-02-08T00:35:40.183Z,15.97
2019-02-08T00:38:14.162Z,14.83
2019-02-08T00:40:47.209Z,11.13
2019-02-08T00:43:19.210Z,12.90
2019-02-08T00:45:50.492Z,18.20
2019-02-08T00:48:24.272Z,16.50
2019-02-08T00:50:58.272Z,21.77
2019-02-08T00:53:33.484Z,11.90
2019-02-08T00:56:06.700Z,12.23
2019-02-08T00:58:39.944Z,16.87
2019-02-08T01:01:13.341Z,13.50
2019-02-08T01:03:47.717Z,10.20
2019-02-08T01:06:20.217Z,11.63
2019-02-08T01:08:53.341Z,13.03
2019-02-08T01:11:27.332Z,13.73
2019-02-08T01:14:00.321Z,9.53
2019-02-08T01:16:33.338Z,12.43
2019-02-08T01:19:05.355Z,14.07
2019-02-08T01:21:36.658Z,13.57
2019-02-08T01:24:07.974Z,8.77
2019-02-08T01:26:39.542Z,10.03
2019-02-08T01:29:12.506Z,8.37
2019-02-08T01:31:48.090Z,13.10
2019-02-08T01:34:19.459Z,15.07
2019-02-08T01:36:53.315Z,14.50
2019-02-08T01:39:24.528Z,9.93
2019-02-08T01:41:58.511Z,9.37
2019-02-08T01:44:31.487Z,15.50
2019-02-08T01:47:03.380Z,14.60
2019-02-08T01:49:36.538Z,13.77
2019-02-08T01:52:12.072Z,13.50
2019-02-08T01:54:45.104Z,12.53
2019-02-08T01:57:16.319Z,10.63
2019-02-08T01:59:49.121Z,14.77
2019-02-08T02:02:21.542Z,14.87
2019-02-08T02:04:55.564Z,10.83
2019-02-08T02:07:26.870Z,13.37
2019-02-08T02:09:59.850Z,14.63
2019-02-08T02:12:33.476Z,10.43
2019-02-08T02:15:07.767Z,12.93
2019-02-08T02:17:39.247Z,12.37
2019-02-08T02:20:13.167Z,11.10
2019-02-08T02:22:46.712Z,14.03
2019-02-08T02:25:22.306Z,14.77
2019-02-08T02:27:54.753Z,9.40
2019-02-08T02:30:32.701Z,9.50
2019-02-08T02:33:07.485Z,11.50
2019-02-08T02:35:41.507Z,11.90
2019-02-08T02:38:13.894Z,8.53
2019-02-08T02:40:45.797Z,9.70
2019-02-08T02:43:17.769Z,10.03
2019-02-08T02:45:49.506Z,10.77
2019-02-08T02:48:20.746Z,7.87
2019-02-08T02:50:53.166Z,8.17
2019-02-08T02:53:25.934Z,8.63
2019-02-08T02:55:59.956Z,8.80
2019-02-08T02:58:33.146Z,8.90
2019-02-08T03:01:06.486Z,7.57
2019-02-08T03:03:39.909Z,7.93
2019-02-08T03:06:12.516Z,9.83
2019-02-08T03:08:43.781Z,8.40
2019-02-08T03:11:19.486Z,5.07
2019-02-08T03:17:15.022Z,10.57
2019-02-08T03:19:47.844Z,8.37
2019-02-08T03:22:19.092Z,6.00
2019-02-08T03:24:50.341Z,5.10
2019-02-08T03:27:25.130Z,7.60
2019-02-08T03:29:58.073Z,5.80
2019-02-08T03:32:32.049Z,8.97
2019-02-08T03:35:07.565Z,12.03
2019-02-08T03:37:39.919Z,5.70
2019-02-08T03:40:15.789Z,7.30
2019-02-08T03:42:49.925Z,8.80
2019-02-08T03:45:23.402Z,7.80
2019-02-08T03:47:56.088Z,5.23
2019-02-08T03:50:30.349Z,9.13
2019-02-08T03:53:04.284Z,5.90
2019-02-08T03:55:36.877Z,6.17
2019-02-08T03:58:10.162Z,5.60
2019-02-08T04:00:49.901Z,6.53
2019-02-08T04:03:23.038Z,6.63
2019-02-08T04:05:58.632Z,5.40
2019-02-08T04:08:31.077Z,7.20
2019-02-08T04:11:02.479Z,5.27
2019-02-08T04:13:36.263Z,3.90
2019-02-08T04:16:10.025Z,5.47
2019-02-08T04:18:42.522Z,4.10
2019-02-08T04:21:15.223Z,3.53
2019-02-08T04:23:50.253Z,4.97
2019-02-08T04:26:23.288Z,5.23
2019-02-08T04:28:58.127Z,4.40
2019-02-08T04:31:30.348Z,5.80
2019-02-08T04:34:01.925Z,5.43
2019-02-08T04:36:34.745Z,9.87
2019-02-08T04:39:08.755Z,13.73
2019-02-08T04:41:42.513Z,27.10
2019-02-08T04:44:16.259Z,27.83
2019-02-08T04:46:49.675Z,22.63
2019-02-08T04:49:22.525Z,22.10
2019-02-08T04:51:53.748Z,20.93
2019-02-08T04:54:24.954Z,22.30
2019-02-08T04:57:13.922Z,22.27
2019-02-08T04:59:45.238Z,19.07
2019-02-08T05:02:19.932Z,24.93
2019-02-08T05:04:53.994Z,24.40
2019-02-08T05:07:26.389Z,19.53
2019-02-08T05:10:00.554Z,18.00
2019-02-08T05:12:31.803Z,18.10
2019-02-08T05:15:05.069Z,15.40
2019-02-08T05:17:38.080Z,15.27
2019-02-08T05:20:12.250Z,13.40
2019-02-08T05:22:46.336Z,19.57
2019-02-08T05:25:18.611Z,16.43
2019-02-08T05:27:54.154Z,12.23
2019-02-08T05:30:27.709Z,15.40
2019-02-08T05:33:01.692Z,15.57
2019-02-08T05:35:35.546Z,16.40
2019-02-08T05:38:09.588Z,19.40
2019-02-08T05:40:43.601Z,16.20
2019-02-08T05:43:14.810Z,17.23
2019-02-08T05:45:46.085Z,23.20
2019-02-08T05:48:21.354Z,18.20
2019-02-08T05:50:53.447Z,19.33
2019-02-08T05:53:26.044Z,19.27
2019-02-08T05:56:00.881Z,20.60
2019-02-08T05:58:32.124Z,23.53
2019-02-08T06:01:06.725Z,19.87
2019-02-08T06:03:40.639Z,20.03
2019-02-08T06:06:14.612Z,23.43
2019-02-08T06:08:50.780Z,14.77
2019-02-08T06:11:23.713Z,19.97
2019-02-08T06:13:59.327Z,18.53
2019-02-08T06:16:31.570Z,15.00
2019-02-08T06:19:06.346Z,17.70
2019-02-08T06:21:37.643Z,16.90
2019-02-08T06:24:09.804Z,19.40
2019-02-08T06:26:42.735Z,16.40
2019-02-08T06:29:16.908Z,14.70
2019-02-08T06:31:48.515Z,15.37
2019-02-08T06:34:19.744Z,17.90
2019-02-08T06:36:53.834Z,15.47
2019-02-08T06:39:25.172Z,16.33
2019-02-08T06:41:58.801Z,23.67
2019-02-08T06:44:31.980Z,17.20
2019-02-08T06:47:04.959Z,16.60
2019-02-08T06:49:37.404Z,22.97
2019-02-08T06:52:11.583Z,58.03
2019-02-08T06:54:42.828Z,62.93
2019-02-08T06:57:30.737Z,62.57
2019-02-08T07:00:10.824Z,41.00
2019-02-08T07:03:12.538Z,40.10
2019-02-08T07:06:01.623Z,41.50
2019-02-08T07:08:41.313Z,33.17
2019-02-08T07:11:22.189Z,40.33
2019-02-08T07:14:22.435Z,19.10
2019-02-08T07:17:22.011Z,49.63
2019-02-08T07:20:15.609Z,31.63
2019-02-08T07:23:04.424Z,38.30
2019-02-08T07:26:01.973Z,41.23
2019-02-08T07:28:48.544Z,31.80
2019-02-08T07:31:45.505Z,31.70
2019-02-08T07:34:34.818Z,23.63
2019-02-08T07:37:26.147Z,22.40
2019-02-08T07:40:18.492Z,36.50
2019-02-08T07:43:10.141Z,35.63
2019-02-08T07:46:08.326Z,30.67
2019-02-08T07:48:54.871Z,30.87
2019-02-08T07:51:56.226Z,26.07
2019-02-08T07:54:42.249Z,19.43
2019-02-08T07:57:24.088Z,35.67
2019-02-08T08:00:26.505Z,20.73
2019-02-08T08:03:20.948Z,26.33
2019-02-08T08:06:13.275Z,24.00
2019-02-08T08:09:08.126Z,18.57
2019-02-08T08:11:55.599Z,17.27
2019-02-08T08:14:45.858Z,24.83
2019-02-08T08:17:39.121Z,18.90
2019-02-08T08:20:34.173Z,16.80
2019-02-08T08:23:15.017Z,19.63
2019-02-08T08:26:15.466Z,24.93
2019-02-08T08:29:02.280Z,22.33
2019-02-08T08:31:50.000Z,18.83
2019-02-08T08:34:55.662Z,11.17
2019-02-08T08:38:04.368Z,19.37
2019-02-08T08:41:19.787Z,13.40
2019-02-08T08:44:34.816Z,18.30
2019-02-08T08:47:56.533Z,17.70
2019-02-08T08:51:21.971Z,16.20
2019-02-08T08:54:36.804Z,17.60
2019-02-08T08:57:43.243Z,13.80
2019-02-08T09:00:35.551Z,14.17
2019-02-08T09:03:43.227Z,13.23
2019-02-08T09:06:53.230Z,11.87
2019-02-08T09:10:23.414Z,13.20
2019-02-08T09:13:21.736Z,14.70
2019-02-08T09:16:24.870Z,15.13
2019-02-08T09:19:39.902Z,15.07
2019-02-08T09:23:06.722Z,12.53
2019-02-08T09:25:57.525Z,16.53
2019-02-08T09:29:23.763Z,16.03
2019-02-08T09:32:38.366Z,10.57
2019-02-08T09:36:00.957Z,14.17
2019-02-08T09:39:16.878Z,12.90
2019-02-08T09:42:49.807Z,13.33
2019-02-08T09:46:02.299Z,12.90
2019-02-08T09:49:23.517Z,11.50
2019-02-08T09:52:55.719Z,14.17
2019-02-08T09:56:06.185Z,13.17
2019-02-08T09:59:13.188Z,10.13
2019-02-08T10:02:31.806Z,9.77
2019-02-08T10:05:41.468Z,11.80
2019-02-08T10:08:57.486Z,18.23
2019-02-08T10:12:22.544Z,15.17
2019-02-08T10:15:49.958Z,11.93
2019-02-08T10:18:55.759Z,10.53
2019-02-08T10:22:05.568Z,12.77
2019-02-08T10:25:40.196Z,13.23
2019-02-08T10:28:50.158Z,15.40
2019-02-08T10:32:17.706Z,10.73
2019-02-08T10:35:21.589Z,6.73
2019-02-08T10:38:32.683Z,10.40
2019-02-08T10:41:42.629Z,12.47
2019-02-08T10:45:13.288Z,8.50
2019-02-08T10:48:36.430Z,7.67
2019-02-08T10:51:53.319Z,9.13
2019-02-08T10:55:00.852Z,8.40
2019-02-08T10:58:28.338Z,7.63
2019-02-08T11:01:45.967Z,11.90
2019-02-08T11:05:04.526Z,7.13
2019-02-08T11:08:13.629Z,12.20
2019-02-08T11:11:23.512Z,9.77
2019-02-08T11:14:44.560Z,9.90
2019-02-08T11:17:58.553Z,7.80
2019-02-08T11:20:32.134Z,4.90
2019-02-08T11:23:05.254Z,6.77
2019-02-08T11:25:37.282Z,4.90
2019-02-08T11:28:08.607Z,4.30
2019-02-08T11:30:39.801Z,9.60
2019-02-08T11:33:13.311Z,6.30
2019-02-08T11:35:47.151Z,5.20
2019-02-08T11:38:25.069Z,7.70
2019-02-08T11:40:58.321Z,7.03
2019-02-08T11:43:29.693Z,4.40
2019-02-08T11:46:03.203Z,6.40
2019-02-08T11:48:36.020Z,7.10
2019-02-08T11:51:08.222Z,10.00
2019-02-08T11:53:41.777Z,5.10
2019-02-08T11:56:13.427Z,5.27
2019-02-08T11:58:47.284Z,6.90
2019-02-08T12:01:19.655Z,12.10
2019-02-08T12:03:55.190Z,7.57
2019-02-08T12:06:29.157Z,9.33
2019-02-08T12:09:01.350Z,17.37
2019-02-08T12:11:34.376Z,9.20
2019-02-08T12:14:09.933Z,5.13
2019-02-08T12:16:41.119Z,13.60
2019-02-08T12:19:12.588Z,36.17
2019-02-08T12:21:43.876Z,8.97
2019-02-08T12:24:15.101Z,8.53
2019-02-08T12:26:46.442Z,4.27
2019-02-08T12:29:19.428Z,13.37
2019-02-08T12:31:53.480Z,24.13
2019-02-08T12:34:27.256Z,8.97
2019-02-08T12:37:01.321Z,7.70
2019-02-08T12:39:35.313Z,7.47
2019-02-08T12:42:06.532Z,11.70
2019-02-08T12:44:37.823Z,11.03
2019-02-08T12:47:13.172Z,4.27
2019-02-08T12:49:45.390Z,11.20
2019-02-08T12:52:19.431Z,6.00
2019-02-08T12:54:53.444Z,12.17
2019-02-08T12:57:28.954Z,7.00
2019-02-08T13:00:01.676Z,7.43
2019-02-08T13:02:36.181Z,5.37
2019-02-08T13:05:12.198Z,6.23
2019-02-08T13:07:43.633Z,10.17
2019-02-08T13:10:19.247Z,4.30
2019-02-08T13:12:52.484Z,9.80
2019-02-08T13:15:28.847Z,5.40
2019-02-08T13:18:03.114Z,8.40
2019-02-08T13:20:35.874Z,4.43
2019-02-08T13:23:07.100Z,8.43
2019-02-08T13:25:38.378Z,12.27
2019-02-08T13:28:12.532Z,7.90
2019-02-08T13:30:45.670Z,6.40
2019-02-08T13:33:16.919Z,8.10
2019-02-08T13:35:50.789Z,10.10
2019-02-08T13:38:24.641Z,7.10
2019-02-08T13:40:58.640Z,9.53
2019-02-08T13:43:29.946Z,13.90
2019-02-08T13:46:01.132Z,4.80
2019-02-08T13:48:34.850Z,3.83
2019-02-08T13:51:06.177Z,6.20
2019-02-08T13:53:37.620Z,4.67
2019-02-08T13:56:10.771Z,15.40
2019-02-08T13:58:43.858Z,7.27
2019-02-08T14:01:15.985Z,11.97
2019-02-08T14:03:50.226Z,8.73
2019-02-08T14:06:25.287Z,11.97
2019-02-08T14:08:59.419Z,6.97
2019-02-08T14:11:33.447Z,12.07
2019-02-08T14:14:06.226Z,22.87
2019-02-08T14:16:38.313Z,7.83
2019-02-08T14:19:11.217Z,6.67
2019-02-08T14:21:45.415Z,13.17
2019-02-08T14:24:20.458Z,4.33
2019-02-08T14:26:54.528Z,9.40
2019-02-08T14:29:26.706Z,6.00
2019-02-08T14:31:58.557Z,7.30
2019-02-08T14:34:30.863Z,8.93
2019-02-08T14:37:04.776Z,8.77
2019-02-08T14:39:36.012Z,8.53
2019-02-08T14:42:07.717Z,9.80
2019-02-08T14:44:40.706Z,5.17
2019-02-08T14:47:12.373Z,11.30
2019-02-08T14:49:46.031Z,14.47
2019-02-08T14:52:17.236Z,8.83
2019-02-08T14:54:51.073Z,10.17
2019-02-08T14:57:25.104Z,12.03
2019-02-08T14:59:59.228Z,11.63
2019-02-08T15:02:30.883Z,10.80
2019-02-08T15:05:08.287Z,11.10
2019-02-08T15:07:40.996Z,16.37
2019-02-08T15:10:20.148Z,12.77
2019-02-08T15:12:51.987Z,9.07
2019-02-08T15:15:26.538Z,14.47
2019-02-08T15:18:01.869Z,5.50
2019-02-08T15:20:34.249Z,11.77
2019-02-08T15:23:08.383Z,5.37
2019-02-08T15:25:39.679Z,7.00
2019-02-08T15:28:13.272Z,5.77
2019-02-08T15:30:47.301Z,7.30
2019-02-08T15:33:20.091Z,5.70
2019-02-08T15:35:52.243Z,3.97
2019-02-08T15:38:23.452Z,6.73
2019-02-08T15:40:57.493Z,3.97
2019-02-08T15:43:31.008Z,7.53
2019-02-08T15:46:04.431Z,8.83
2019-02-08T15:48:36.190Z,5.73
2019-02-08T15:51:12.693Z,4.50
2019-02-08T15:53:44.289Z,8.20
2019-02-08T15:56:18.751Z,21.60
2019-02-08T15:58:50.289Z,11.37
2019-02-08T16:01:24.210Z,7.33
2019-02-08T16:03:56.841Z,8.20
2019-02-08T16:06:30.367Z,6.63
2019-02-08T16:09:01.608Z,12.77
2019-02-08T16:11:35.351Z,14.77
2019-02-08T16:14:08.112Z,31.50
2019-02-08T16:16:41.453Z,49.43
2019-02-08T16:19:14.529Z,26.43
2019-02-08T16:21:45.720Z,14.10
2019-02-08T16:24:18.378Z,12.80
2019-02-08T16:26:52.360Z,9.60
2019-02-08T16:29:26.391Z,6.60
2019-02-08T16:32:00.384Z,11.47
2019-02-08T16:34:31.580Z,12.13
2019-02-08T16:37:05.573Z,5.90
2019-02-08T16:39:36.744Z,7.33
2019-02-08T16:42:08.016Z,9.80
2019-02-08T16:44:41.409Z,12.67
2019-02-08T16:47:13.749Z,29.70
2019-02-08T16:49:46.420Z,12.47
2019-02-08T16:52:20.723Z,26.57
2019-02-08T16:54:54.712Z,40.10
2019-02-08T16:57:28.558Z,23.93
2019-02-08T17:00:01.386Z,20.37
2019-02-08T17:02:34.862Z,31.33
2019-02-08T17:05:11.674Z,27.37
2019-02-08T17:07:44.687Z,27.80
2019-02-08T17:10:18.726Z,23.90
2019-02-08T17:12:52.896Z,16.53
2019-02-08T17:15:27.006Z,13.47
2019-02-08T17:18:00.144Z,15.60
2019-02-08T17:20:36.685Z,12.50
2019-02-08T17:23:09.052Z,20.03
2019-02-08T17:25:42.511Z,29.70
2019-02-08T17:28:34.615Z,36.40
2019-02-08T17:31:07.710Z,50.53
2019-02-08T17:33:41.648Z,45.87
2019-02-08T17:36:14.888Z,37.53
2019-02-08T17:38:48.643Z,35.03
2019-02-08T17:41:22.433Z,24.37
2019-02-08T17:43:57.603Z,27.80
2019-02-08T17:46:31.807Z,22.13
2019-02-08T17:49:03.149Z,21.53
2019-02-08T17:51:37.009Z,28.53
2019-02-08T17:54:10.827Z,19.00
2019-02-08T17:56:44.917Z,27.50
2019-02-08T17:59:17.779Z,29.13
2019-02-08T18:01:49.792Z,19.37
2019-02-08T18:04:25.189Z,15.10
2019-02-08T18:06:57.816Z,10.90
2019-02-08T18:09:31.047Z,18.53
2019-02-08T18:12:05.049Z,28.20
2019-02-08T18:14:37.864Z,27.50
2019-02-08T18:17:10.325Z,30.97
2019-02-08T18:19:44.033Z,25.60
2019-02-08T18:22:15.291Z,24.50
2019-02-08T18:24:48.994Z,24.53
2019-02-08T18:27:24.535Z,21.63
2019-02-08T18:29:57.018Z,21.73
2019-02-08T18:32:31.004Z,23.67
2019-02-08T18:35:04.289Z,23.73
2019-02-08T18:37:35.531Z,22.13
2019-02-08T18:40:07.789Z,29.40
2019-02-08T18:42:42.071Z,24.70
2019-02-08T18:45:19.694Z,27.40
2019-02-08T18:47:51.046Z,19.10
2019-02-08T18:50:27.373Z,22.53
2019-02-08T18:52:59.190Z,15.13
2019-02-08T18:55:33.198Z,14.00
2019-02-08T18:58:04.879Z,14.23
2019-02-08T19:00:40.481Z,14.60
2019-02-08T19:03:22.422Z,19.90
2019-02-08T19:06:01.106Z,17.33
2019-02-08T19:08:32.706Z,18.77
2019-02-08T19:11:06.296Z,19.53
2019-02-08T19:13:38.270Z,18.47
2019-02-08T19:16:11.155Z,21.07
2019-02-08T19:18:45.521Z,19.40
2019-02-08T19:21:19.225Z,18.47
2019-02-08T19:23:54.492Z,21.90
2019-02-08T19:26:27.279Z,23.57
2019-02-08T19:29:02.778Z,23.57
2019-02-08T19:31:35.321Z,17.77
2019-02-08T19:34:10.847Z,17.03
2019-02-08T19:36:43.341Z,21.77
2019-02-08T19:39:14.611Z,23.07
2019-02-08T19:41:48.192Z,17.90
2019-02-08T19:44:22.276Z,19.87
2019-02-08T19:46:58.010Z,17.00
2019-02-08T19:49:30.227Z,15.83
2019-02-08T19:52:04.174Z,14.93
2019-02-08T19:54:37.645Z,13.37
2019-02-08T19:57:14.683Z,12.07
2019-02-08T19:59:47.302Z,11.80
2019-02-08T20:02:19.447Z,10.90
2019-02-08T20:04:53.444Z,16.67
2019-02-08T20:07:26.755Z,15.47
2019-02-08T20:09:58.296Z,16.47
2019-02-08T20:12:32.263Z,16.00
2019-02-08T20:15:07.718Z,13.17
2019-02-08T20:17:41.458Z,12.20
2019-02-08T20:20:14.416Z,16.70
2019-02-08T20:22:45.656Z,13.33
2019-02-08T20:25:26.414Z,17.20
2019-02-08T20:27:59.621Z,9.60
2019-02-08T20:30:33.701Z,7.80
2019-02-08T20:33:08.054Z,10.23
2019-02-08T20:35:43.144Z,11.53
2019-02-08T20:38:15.641Z,7.80
2019-02-08T20:40:49.858Z,7.80
2019-02-08T20:43:23.618Z,8.70
2019-02-08T20:45:54.851Z,9.17
2019-02-08T20:48:28.448Z,7.90
2019-02-08T20:51:02.577Z,10.77
2019-02-08T20:53:34.773Z,6.83
2019-02-08T20:56:07.783Z,8.33
2019-02-08T20:58:49.810Z,9.83
2019-02-08T21:01:15.651Z,10.20
2019-02-08T21:03:47.654Z,5.77
2019-02-08T21:06:24.213Z,11.77
2019-02-08T21:08:57.782Z,32.83
2019-02-08T21:11:31.703Z,33.33
2019-02-08T21:14:05.621Z,10.93
2019-02-08T21:16:38.069Z,11.87
2019-02-08T21:19:12.910Z,8.23
2019-02-08T21:21:45.663Z,11.43
2019-02-08T21:24:18.796Z,13.93
2019-02-08T21:26:51.042Z,12.33
2019-02-08T21:29:24.473Z,12.87
2019-02-08T21:31:58.091Z,10.53
2019-02-08T21:34:31.702Z,5.33
2019-02-08T21:37:07.443Z,10.80
2019-02-08T21:39:39.089Z,9.67
2019-02-08T21:42:10.994Z,20.80
2019-02-08T21:44:42.224Z,22.77
2019-02-08T21:47:15.861Z,14.60
2019-02-08T21:49:47.775Z,17.83
2019-02-08T21:52:20.681Z,22.50
2019-02-08T21:54:51.978Z,11.93
2019-02-08T21:57:25.731Z,9.10
2019-02-08T21:59:56.938Z,9.23
2019-02-08T22:02:28.148Z,8.40
2019-02-08T22:05:01.078Z,9.53
2019-02-08T22:07:34.845Z,8.67
2019-02-08T22:10:07.822Z,8.07
2019-02-08T22:12:40.719Z,9.73
2019-02-08T22:15:18.579Z,8.33
2019-02-08T22:17:51.999Z,7.77
2019-02-08T22:20:26.399Z,7.57
2019-02-08T22:22:59.945Z,12.00
2019-02-08T22:25:33.595Z,9.53
2019-02-08T22:28:08.862Z,4.90
2019-02-08T22:30:43.757Z,7.50
2019-02-08T22:33:14.961Z,8.23
2019-02-08T22:35:47.978Z,9.97
2019-02-08T22:38:21.701Z,7.57
2019-02-08T22:40:54.113Z,4.50
2019-02-08T22:43:25.320Z,9.07
2019-02-08T22:45:56.533Z,13.43
2019-02-08T22:48:27.765Z,9.60
2019-02-08T22:51:01.021Z,13.37
2019-02-08T22:53:36.818Z,9.47
2019-02-08T22:56:08.990Z,12.77
2019-02-08T22:58:43.448Z,12.23
2019-02-08T23:01:31.975Z,8.60
2019-02-08T23:04:05.007Z,13.37
2019-02-08T23:06:44.471Z,11.87
2019-02-08T23:09:20.861Z,12.77
2019-02-08T23:11:54.195Z,11.67
2019-02-08T23:14:28.213Z,8.03
2019-02-08T23:17:02.152Z,12.37
2019-02-08T23:19:36.128Z,9.63
2019-02-08T23:22:10.148Z,11.30
2019-02-08T23:24:42.948Z,9.80
2019-02-08T23:27:15.215Z,11.20
2019-02-08T23:29:50.675Z,9.80
2019-02-08T23:32:23.261Z,10.53
2019-02-08T23:34:54.495Z,13.83
2019-02-08T23:37:26.462Z,10.07
2019-02-08T23:39:59.241Z,8.77
2019-02-08T23:42:32.209Z,11.47
2019-02-08T23:45:06.647Z,22.60
2019-02-08T23:47:38.493Z,14.00
2019-02-08T23:50:13.975Z,12.57
2019-02-08T23:52:47.367Z,10.70
2019-02-08T23:55:20.539Z,12.33
2019-02-08T23:57:54.069Z,10.63
